Time;durP1;ratioP1;P1;durP2;ratioP2;P2;SDS_P1;SDS_P2;PMS_P1;PMS_P2;Temp;Humidity;BMP_temperature;BMP_pressure;BME280_temperature;BME280_humidity;BME280_pressure;Samples;Min_cycle;Max_cycle;Signal;HPM_P1;HPM_P2
2021/09/08 00:00:12;;;;;;;18.02;12.88;;;;;;;13.34;84.14;100883.09;1743023;82;21011;-91
2021/09/08 00:02:39;;;;;;;19.50;13.88;;;;;;;13.32;84.44;100888.48;1725428;82;20968;-90
2021/09/08 00:05:09;;;;;;;17.10;13.20;;;;;;;13.29;84.33;100883.91;1722302;82;21021;-90
2021/09/08 00:07:35;;;;;;;18.30;12.80;;;;;;;13.27;84.47;100880.05;1729168;82;21531;-91
2021/09/08 00:10:07;;;;;;;16.00;13.32;;;;;;;13.26;84.80;100878.83;1734730;82;21039;-90
2021/09/08 00:12:34;;;;;;;18.42;14.15;;;;;;;13.24;84.71;100882.94;1690850;85;21047;-90
2021/09/08 00:15:01;;;;;;;18.02;12.98;;;;;;;13.22;84.75;100878.67;1723341;82;21475;-90
2021/09/08 00:17:27;;;;;;;18.25;12.73;;;;;;;13.20;84.94;100879.28;1757826;81;21025;-90
2021/09/08 00:19:53;;;;;;;15.75;12.93;;;;;;;13.16;84.94;100872.02;1752783;81;21041;-90
2021/09/08 00:22:19;;;;;;;17.32;13.00;;;;;;;13.13;85.14;100877.09;1708124;83;21043;-90
2021/09/08 00:24:45;;;;;;;17.70;13.50;;;;;;;13.11;85.19;100880.31;1690679;85;21525;-90
2021/09/08 00:27:11;;;;;;;14.05;12.35;;;;;;;13.09;85.32;100884.87;1728327;82;21303;-91
2021/09/08 00:29:37;;;;;;;15.05;12.07;;;;;;;13.08;85.23;100875.25;1728399;82;21528;-90
2021/09/08 00:32:04;;;;;;;16.62;13.75;;;;;;;13.07;85.23;100880.67;1707297;82;21247;-90
2021/09/08 00:34:31;;;;;;;16.80;13.25;;;;;;;13.02;85.48;100875.70;1749346;82;21061;-90
2021/09/08 00:36:57;;;;;;;17.65;13.95;;;;;;;13.00;85.73;100878.96;1749920;82;21057;-90
2021/09/08 00:39:23;;;;;;;17.42;13.55;;;;;;;12.99;85.55;100876.41;1741429;82;21072;-90
2021/09/08 00:41:49;;;;;;;16.67;13.75;;;;;;;12.97;85.82;100880.51;1750493;82;20958;-91
2021/09/08 00:44:15;;;;;;;15.00;11.80;;;;;;;12.95;85.74;100882.89;1733460;81;21006;-90
2021/09/08 00:46:45;;;;;;;15.60;11.83;;;;;;;12.93;85.45;100886.97;1720169;83;21025;-90
2021/09/08 00:49:12;;;;;;;16.70;13.15;;;;;;;12.89;85.38;100887.67;1720482;83;21005;-90
2021/09/08 00:51:39;;;;;;;18.55;14.65;;;;;;;12.89;85.58;100889.48;1720508;82;20974;-90
2021/09/08 00:54:12;;;;;;;18.27;13.45;;;;;;;12.87;85.72;100886.12;1720516;83;21029;-90
2021/09/08 00:56:40;;;;;;;18.50;13.18;;;;;;;12.85;85.79;100886.70;1742270;81;21010;-90
2021/09/08 00:59:07;;;;;;;21.33;14.93;;;;;;;12.81;85.76;100887.41;1734510;82;21509;-90
2021/09/08 01:01:33;;;;;;;19.37;13.88;;;;;;;12.80;86.23;100882.20;1719701;82;21008;-89
2021/09/08 01:03:58;;;;;;;22.95;15.53;;;;;;;12.78;86.34;100886.30;1735672;82;21524;-90
2021/09/08 01:06:25;;;;;;;21.45;15.95;;;;;;;12.76;86.57;100890.01;1757361;82;20967;-90
2021/09/08 01:08:52;;;;;;;22.40;15.32;;;;;;;12.73;86.55;100891.55;1757488;81;22180;-90
2021/09/08 01:11:19;;;;;;;18.02;14.07;;;;;;;12.70;86.29;100890.00;1758083;82;21053;-92
2021/09/08 01:13:45;;;;;;;18.35;14.60;;;;;;;12.67;86.27;100892.38;1757148;81;20966;-92
2021/09/08 01:16:11;;;;;;;19.50;14.10;;;;;;;12.65;86.26;100895.61;1733866;81;21022;-92
2021/09/08 01:18:37;;;;;;;17.32;13.60;;;;;;;12.63;86.19;100893.54;1727268;82;21009;-92
2021/09/08 01:21:04;;;;;;;17.48;11.90;;;;;;;12.63;86.47;100890.05;1741897;82;21002;-92
2021/09/08 01:23:32;;;;;;;17.27;13.55;;;;;;;12.61;86.39;100893.31;1757945;81;21477;-92
2021/09/08 01:26:02;;;;;;;17.32;14.10;;;;;;;12.60;86.42;100899.09;1742039;82;21599;-92
2021/09/08 01:28:29;;;;;;;18.77;12.55;;;;;;;12.58;86.30;100897.50;1738022;82;21001;-92
2021/09/08 01:30:57;;;;;;;15.50;11.48;;;;;;;12.54;86.11;100890.25;1750907;81;21044;-92
2021/09/08 01:33:24;;;;;;;16.57;12.58;;;;;;;12.52;86.32;100888.19;1721918;82;21396;-92
2021/09/08 01:35:50;;;;;;;14.28;11.55;;;;;;;12.48;86.42;100884.08;1740897;81;21030;-92
2021/09/08 01:38:17;;;;;;;19.52;13.48;;;;;;;12.45;86.41;100881.64;1758977;81;21484;-92
2021/09/08 01:40:44;;;;;;;15.95;12.88;;;;;;;12.43;86.53;100883.06;1718147;82;21010;-92
2021/09/08 01:43:10;;;;;;;19.42;12.93;;;;;;;12.42;86.58;100877.89;1745235;82;20939;-92
2021/09/08 01:45:41;;;;;;;20.77;15.15;;;;;;;12.40;86.55;100879.34;1753993;81;20978;-89
2021/09/08 01:48:09;;;;;;;16.73;12.88;;;;;;;12.38;86.75;100877.75;1757590;82;21029;-92
2021/09/08 01:50:35;;;;;;;21.52;14.70;;;;;;;12.34;87.07;100874.48;1735277;82;21005;-89
2021/09/08 01:53:01;;;;;;;19.52;14.28;;;;;;;12.32;87.05;100869.77;1746264;81;20998;-90
2021/09/08 01:55:27;;;;;;;16.82;13.55;;;;;;;12.32;87.04;100875.53;1732061;82;20960;-90
2021/09/08 01:57:52;;;;;;;15.53;12.63;;;;;;;12.29;87.29;100875.75;1731607;82;20977;-90
2021/09/08 02:00:19;;;;;;;18.35;14.63;;;;;;;12.26;87.33;100879.45;1738573;82;21004;-89
2021/09/08 02:02:45;;;;;;;18.37;13.22;;;;;;;12.25;87.29;100880.91;1733291;81;21033;-89
2021/09/08 02:05:13;;;;;;;15.03;11.75;;;;;;;12.24;87.30;100883.16;1709035;81;21468;-90
2021/09/08 02:07:39;;;;;;;16.00;12.85;;;;;;;12.20;87.05;100876.75;1729161;81;21010;-90
2021/09/08 02:10:06;;;;;;;18.65;13.28;;;;;;;12.19;87.11;100881.69;1727945;83;21024;-90
2021/09/08 02:12:32;;;;;;;14.78;12.05;;;;;;;12.18;87.22;100879.16;1726489;82;21468;-90
2021/09/08 02:14:59;;;;;;;17.87;12.33;;;;;;;12.17;86.94;100882.75;1731422;81;21045;-90
2021/09/08 02:17:24;;;;;;;17.30;13.58;;;;;;;12.15;86.85;100882.03;1729696;82;21043;-90
2021/09/08 02:19:50;;;;;;;18.55;14.00;;;;;;;12.13;86.90;100878.15;1723857;82;21084;-91
2021/09/08 02:22:16;;;;;;;16.17;13.18;;;;;;;12.12;87.20;100876.47;1757702;82;20958;-90
2021/09/08 02:24:42;;;;;;;18.75;13.05;;;;;;;12.11;87.39;100873.91;1747173;81;21013;-89
2021/09/08 02:27:11;;;;;;;17.23;12.82;;;;;;;12.08;87.32;100871.03;1736922;81;20988;-90
2021/09/08 02:29:36;;;;;;;17.95;13.38;;;;;;;12.07;87.20;100870.64;1741933;82;21046;-90
2021/09/08 02:32:03;;;;;;;18.80;14.43;;;;;;;12.06;87.47;100874.73;1750079;82;21001;-90
2021/09/08 02:34:30;;;;;;;19.02;13.45;;;;;;;12.03;87.47;100869.17;1696279;82;21507;-90
2021/09/08 02:36:57;;;;;;;18.07;12.80;;;;;;;12.04;87.88;100876.63;1693012;83;21009;-90
2021/09/08 02:39:23;;;;;;;16.77;13.22;;;;;;;12.04;87.80;100875.30;1693202;82;21048;-90
2021/09/08 02:41:49;;;;;;;17.57;14.07;;;;;;;12.01;87.51;100879.48;1744209;81;20993;-90
2021/09/08 02:44:15;;;;;;;18.60;13.70;;;;;;;11.99;87.49;100875.63;1744199;82;21518;-90
2021/09/08 02:46:41;;;;;;;16.87;12.82;;;;;;;11.95;87.31;100876.81;1737656;82;21021;-90
2021/09/08 02:49:08;;;;;;;19.48;12.20;;;;;;;11.92;87.25;100879.66;1758033;81;21556;-90
2021/09/08 02:51:34;;;;;;;14.60;11.48;;;;;;;11.88;87.29;100882.16;1757803;81;21790;-90
2021/09/08 02:54:00;;;;;;;14.73;11.53;;;;;;;11.84;87.35;100884.14;1735004;81;20983;-90
2021/09/08 02:56:26;;;;;;;13.65;11.45;;;;;;;11.81;87.35;100888.28;1732705;82;21015;-90
2021/09/08 02:58:52;;;;;;;13.00;10.63;;;;;;;11.80;87.24;100892.37;1750903;81;20997;-90
2021/09/08 03:01:18;;;;;;;16.40;11.15;;;;;;;11.77;87.45;100887.29;1741574;81;21072;-90
2021/09/08 03:03:44;;;;;;;14.33;10.75;;;;;;;11.73;87.57;100882.20;1746264;81;21032;-90
2021/09/08 03:06:10;;;;;;;13.70;11.48;;;;;;;11.71;87.52;100883.27;1726530;82;21552;-91
2021/09/08 03:08:36;;;;;;;14.15;11.25;;;;;;;11.68;87.67;100880.38;1734050;82;20982;-90
2021/09/08 03:11:02;;;;;;;14.28;12.05;;;;;;;11.67;87.84;100872.53;1732173;82;21442;-91
2021/09/08 03:13:28;;;;;;;14.60;11.60;;;;;;;11.65;87.88;100869.17;1735910;82;21563;-90
2021/09/08 03:15:54;;;;;;;14.87;11.55;;;;;;;11.63;87.61;100875.86;1738245;82;20997;-90
2021/09/08 03:18:20;;;;;;;15.68;12.18;;;;;;;11.62;87.63;100878.63;1736025;82;20982;-90
2021/09/08 03:20:46;;;;;;;16.05;13.18;;;;;;;11.61;87.85;100871.14;1727787;82;21484;-90
2021/09/08 03:23:12;;;;;;;20.82;14.47;;;;;;;11.61;87.95;100874.27;1749584;82;20991;-90
2021/09/08 03:25:38;;;;;;;20.57;14.20;;;;;;;11.61;88.31;100866.34;1739138;82;20977;-89
2021/09/08 03:28:04;;;;;;;17.57;14.18;;;;;;;11.60;88.47;100864.17;1757715;81;21009;-89
2021/09/08 03:30:30;;;;;;;16.20;12.90;;;;;;;11.59;88.53;100865.62;1744460;81;20985;-90
2021/09/08 03:32:56;;;;;;;20.02;14.33;;;;;;;11.57;88.32;100869.67;1720449;83;21017;-89
2021/09/08 03:35:22;;;;;;;20.77;15.60;;;;;;;11.56;88.16;100871.95;1735231;82;21061;-90
2021/09/08 03:37:49;;;;;;;19.35;14.95;;;;;;;11.55;88.26;100872.91;1720438;83;21054;-90
2021/09/08 03:40:15;;;;;;;19.07;15.13;;;;;;;11.55;88.55;100868.95;1737090;81;21365;-90
2021/09/08 03:42:41;;;;;;;17.35;12.85;;;;;;;11.53;88.32;100870.84;1741321;81;21034;-89
2021/09/08 03:45:10;;;;;;;16.35;12.75;;;;;;;11.48;88.09;100864.55;1733703;82;21010;-89
2021/09/08 03:47:36;;;;;;;16.55;13.28;;;;;;;11.49;88.00;100870.68;1729841;81;21494;-90
2021/09/08 03:50:03;;;;;;;18.77;13.70;;;;;;;11.47;87.96;100865.96;1755402;82;21025;-89
2021/09/08 03:52:29;;;;;;;21.07;13.70;;;;;;;11.44;87.93;100869.66;1757871;81;21013;-90
2021/09/08 03:54:55;;;;;;;17.98;13.80;;;;;;;11.43;87.99;100867.13;1745331;81;21033;-89
2021/09/08 03:57:21;;;;;;;16.73;12.93;;;;;;;11.43;87.87;100867.13;1720312;83;21051;-89
2021/09/08 03:59:47;;;;;;;16.60;12.73;;;;;;;11.40;87.86;100862.05;1722692;82;21073;-89
2021/09/08 04:02:13;;;;;;;21.52;14.18;;;;;;;11.37;87.87;100864.41;1764490;81;21009;-90
2021/09/08 04:04:39;;;;;;;17.95;14.78;;;;;;;11.37;87.87;100864.41;1751851;81;20973;-89
2021/09/08 04:07:05;;;;;;;20.10;14.10;;;;;;;11.35;88.03;100859.73;1725301;82;21480;-89
2021/09/08 04:09:32;;;;;;;19.27;13.65;;;;;;;11.35;87.95;100860.17;1733819;82;21037;-89
2021/09/08 04:11:58;;;;;;;20.02;14.55;;;;;;;11.34;87.92;100861.97;1749926;81;21460;-89
2021/09/08 04:14:24;;;;;;;24.05;15.25;;;;;;;11.34;87.99;100860.66;1715631;82;21017;-89
2021/09/08 04:16:50;;;;;;;25.75;15.95;;;;;;;11.35;87.99;100865.02;1736471;81;20960;-89
2021/09/08 04:19:16;;;;;;;20.70;14.90;;;;;;;11.34;88.00;100862.45;1719362;83;21039;-89
2021/09/08 04:21:42;;;;;;;25.90;16.67;;;;;;;11.34;88.13;100860.66;1734591;82;21457;-89
2021/09/08 04:24:08;;;;;;;25.85;17.05;;;;;;;11.36;88.27;100859.25;1730518;82;20986;-89
2021/09/08 04:26:34;;;;;;;26.37;16.65;;;;;;;11.35;88.40;100862.81;1727918;83;21028;-89
2021/09/08 04:29:00;;;;;;;24.75;16.80;;;;;;;11.33;88.35;100866.06;1727941;83;21022;-89
2021/09/08 04:31:26;;;;;;;24.72;16.82;;;;;;;11.33;88.61;100867.37;1738335;82;21047;-89
2021/09/08 04:33:52;;;;;;;25.85;17.62;;;;;;;11.31;88.84;100864.82;1712004;83;20995;-89
2021/09/08 04:36:18;;;;;;;28.10;17.70;;;;;;;11.31;89.28;100861.34;1720131;82;20978;-89
2021/09/08 04:38:47;;;;;;;21.48;16.97;;;;;;;11.32;89.42;100860.37;1734033;82;21009;-88
2021/09/08 04:41:13;;;;;;;23.70;16.55;;;;;;;11.33;89.40;100860.77;1723668;82;21037;-89
2021/09/08 04:43:41;;;;;;;21.95;15.78;;;;;;;11.34;89.29;100859.81;1706940;83;21014;-90
2021/09/08 04:46:08;;;;;;;23.47;16.62;;;;;;;11.33;89.13;100860.77;1725774;81;21012;-89
2021/09/08 04:48:34;;;;;;;23.83;15.90;;;;;;;11.34;88.93;100862.45;1726541;81;20999;-89
2021/09/08 04:51:01;;;;;;;24.25;16.20;;;;;;;11.34;88.95;100861.14;1708963;81;21001;-89
2021/09/08 04:53:27;;;;;;;26.85;18.67;;;;;;;11.34;89.48;100861.14;1713182;81;21018;-89
2021/09/08 04:55:53;;;;;;;27.05;18.12;;;;;;;11.35;89.63;100862.38;1691140;82;21135;-88
2021/09/08 04:58:19;;;;;;;29.25;18.23;;;;;;;11.36;89.77;100857.92;1690514;85;21538;-89
2021/09/08 05:00:45;;;;;;;23.87;17.82;;;;;;;11.37;89.60;100863.09;1690422;85;21607;-89
2021/09/08 05:03:11;;;;;;;27.65;18.52;;;;;;;11.38;89.86;100865.26;1690425;84;20974;-89
2021/09/08 05:05:38;;;;;;;30.80;17.50;;;;;;;11.39;89.76;100871.77;1690560;85;21032;-89
2021/09/08 05:08:04;;;;;;;26.10;17.10;;;;;;;11.40;89.74;100869.49;1690313;85;21041;-88
2021/09/08 05:10:30;;;;;;;26.70;18.10;;;;;;;11.41;89.64;100865.89;1690350;85;21010;-88
2021/09/08 05:12:56;;;;;;;25.45;17.57;;;;;;;11.43;89.74;100861.84;1690320;85;21017;-88
2021/09/08 05:15:23;;;;;;;27.75;20.17;;;;;;;11.46;90.00;100864.28;1690554;85;21033;-88
2021/09/08 05:17:49;;;;;;;28.42;19.57;;;;;;;11.47;90.03;100869.45;1690423;84;21089;-88
2021/09/08 05:20:15;;;;;;;29.48;20.10;;;;;;;11.46;90.07;100861.16;1690158;85;21081;-88
2021/09/08 05:22:42;;;;;;;27.90;19.77;;;;;;;11.53;90.37;100866.88;1690292;85;21010;-89
2021/09/08 05:25:09;;;;;;;33.92;21.07;;;;;;;11.55;90.16;100866.75;1690588;85;21050;-89
2021/09/08 05:27:35;;;;;;;32.88;20.57;;;;;;;11.58;90.56;100868.73;1690505;85;21525;-88
2021/09/08 05:30:01;;;;;;;34.83;21.60;;;;;;;11.60;90.31;100872.59;1690208;85;21133;-88
2021/09/08 05:32:27;;;;;;;33.18;19.25;;;;;;;11.64;90.43;100872.73;1690275;85;21052;-88
2021/09/08 05:34:55;;;;;;;36.33;20.80;;;;;;;11.67;90.38;100873.38;1690500;85;21089;-88
2021/09/08 05:37:21;;;;;;;37.73;21.85;;;;;;;11.71;90.84;100872.23;1690181;85;21022;-88
2021/09/08 05:39:47;;;;;;;30.70;20.48;;;;;;;11.73;90.74;100871.63;1690477;84;21449;-88
2021/09/08 05:42:15;;;;;;;31.07;22.22;;;;;;;11.77;90.67;100876.72;1690301;85;20970;-89
2021/09/08 05:44:41;;;;;;;32.78;22.20;;;;;;;11.80;91.10;100873.86;1690007;85;21050;-88
2021/09/08 05:47:10;;;;;;;33.28;22.22;;;;;;;11.85;91.02;100881.89;1690427;85;21544;-89
2021/09/08 05:49:35;;;;;;;32.45;22.95;;;;;;;11.90;91.70;100878.91;1690726;85;21615;-89
2021/09/08 05:52:02;;;;;;;33.40;22.77;;;;;;;11.94;91.63;100873.77;1690351;85;21049;-89
2021/09/08 05:54:31;;;;;;;31.80;23.50;;;;;;;11.99;91.60;100874.80;1690791;85;21496;-89
2021/09/08 05:56:57;;;;;;;33.42;23.95;;;;;;;12.05;92.02;100878.34;1690607;85;21550;-89
2021/09/08 05:59:22;;;;;;;33.98;23.00;;;;;;;12.11;92.43;100880.52;1690697;85;21052;-89
2021/09/08 06:01:48;;;;;;;38.85;26.20;;;;;;;12.17;92.46;100881.42;1690497;85;21061;-89
2021/09/08 06:04:14;;;;;;;37.08;25.65;;;;;;;12.23;92.79;100874.86;1690690;85;21570;-89
2021/09/08 06:06:40;;;;;;;35.33;24.45;;;;;;;12.29;92.97;100875.75;1690532;85;21025;-90
2021/09/08 06:09:07;;;;;;;35.68;24.07;;;;;;;12.34;92.95;100874.48;1690705;85;21544;-89
2021/09/08 06:11:33;;;;;;;37.73;26.20;;;;;;;12.42;93.19;100879.22;1690532;85;21505;-89
2021/09/08 06:13:59;;;;;;;43.10;26.55;;;;;;;12.48;93.15;100877.45;1690496;85;21062;-88
2021/09/08 06:16:25;;;;;;;35.48;25.92;;;;;;;12.54;93.54;100877.02;1690523;85;20993;-89
2021/09/08 06:18:51;;;;;;;42.78;26.82;;;;;;;12.60;94.08;100869.96;1690385;85;20998;-89
2021/09/08 06:21:18;;;;;;;35.88;25.95;;;;;;;12.67;94.02;100868.55;1690725;85;21006;-89
2021/09/08 06:23:44;;;;;;;37.88;25.62;;;;;;;12.75;94.42;100866.66;1690445;85;21037;-89
2021/09/08 06:26:10;;;;;;;37.83;27.25;;;;;;;12.82;94.48;100869.70;1690622;84;21097;-89
2021/09/08 06:28:37;;;;;;;38.15;27.17;;;;;;;12.89;94.82;100870.94;1690619;85;20998;-90
2021/09/08 06:31:02;;;;;;;37.20;26.75;;;;;;;12.95;95.06;100867.84;1690675;85;20994;-89
2021/09/08 06:33:29;;;;;;;38.00;27.02;;;;;;;13.03;94.99;100869.46;1666795;85;21077;-89
2021/09/08 06:35:55;;;;;;;38.35;27.98;;;;;;;13.10;95.20;100868.04;1690686;85;21113;-90
2021/09/08 06:38:21;;;;;;;36.30;26.57;;;;;;;13.17;95.54;100860.96;1690516;84;21129;-89
2021/09/08 06:40:51;;;;;;;38.10;25.52;;;;;;;13.26;95.55;100864.25;1690697;85;21026;-90
2021/09/08 06:43:17;;;;;;;33.05;24.52;;;;;;;13.34;95.59;100867.19;1667079;85;21022;-90
2021/09/08 06:45:43;;;;;;;37.25;25.82;;;;;;;13.41;95.44;100869.73;1690783;85;21013;-90
2021/09/08 06:48:08;;;;;;;39.18;26.42;;;;;;;13.48;95.95;100866.97;1690681;85;21013;-90
2021/09/08 06:50:34;;;;;;;33.83;25.68;;;;;;;13.65;95.83;100863.52;1690887;85;21110;-90
2021/09/08 06:53:00;;;;;;;34.35;25.88;;;;;;;13.65;95.83;100863.52;1690808;85;21567;-89
2021/09/08 06:55:27;;;;;;;38.48;26.82;;;;;;;13.74;96.13;100866.79;1690527;85;21029;-89
2021/09/08 06:57:52;;;;;;;31.97;23.92;;;;;;;13.82;96.19;100867.05;1690728;85;21563;-90
2021/09/08 07:00:18;;;;;;;36.35;26.33;;;;;;;13.90;96.15;100863.31;1690735;84;21117;-91
2021/09/08 07:02:45;;;;;;;34.85;24.60;;;;;;;13.98;96.16;100869.33;1690734;84;21025;-90
2021/09/08 07:05:11;;;;;;;33.08;24.85;;;;;;;14.05;96.04;100865.27;1690951;85;21061;-91
2021/09/08 07:07:37;;;;;;;33.63;24.90;;;;;;;14.14;96.32;100870.30;1690721;84;21006;-91
2021/09/08 07:10:03;;;;;;;35.80;25.02;;;;;;;14.22;96.39;100862.59;1690843;85;21002;-90
2021/09/08 07:12:29;;;;;;;30.75;23.32;;;;;;;14.30;96.33;100864.14;1690732;85;21639;-90
2021/09/08 07:14:55;;;;;;;33.45;24.20;;;;;;;14.39;96.36;100870.05;1690833;85;21029;-91
2021/09/08 07:17:21;;;;;;;31.80;23.83;;;;;;;14.47;96.25;100860.97;1690671;85;21022;-90
2021/09/08 07:19:47;;;;;;;33.92;24.90;;;;;;;14.56;96.25;100865.23;1690828;85;20982;-91
2021/09/08 07:22:13;;;;;;;28.40;21.85;;;;;;;14.63;96.15;100866.42;1690605;85;21476;-91
2021/09/08 07:24:41;;;;;;;34.48;24.95;;;;;;;14.70;96.16;100864.95;1691007;85;21014;-91
2021/09/08 07:27:07;;;;;;;33.92;24.52;;;;;;;14.77;96.30;100870.11;1690440;85;21077;-90
2021/09/08 07:29:33;;;;;;;33.20;23.73;;;;;;;14.85;96.18;100866.84;1690942;84;21469;-90
2021/09/08 07:31:59;;;;;;;28.27;22.15;;;;;;;14.93;96.38;100866.56;1690736;84;21057;-91
2021/09/08 07:34:26;;;;;;;33.15;22.77;;;;;;;15.04;96.66;100870.14;1690234;84;21081;-90
2021/09/08 07:36:53;;;;;;;35.55;22.35;;;;;;;15.13;96.52;100871.55;1690706;85;21448;-90
2021/09/08 07:39:19;;;;;;;31.20;22.10;;;;;;;15.22;96.54;100872.13;1690690;85;21045;-90
2021/09/08 07:41:45;;;;;;;29.37;22.15;;;;;;;15.32;96.63;100870.87;1690678;85;21057;-90
2021/09/08 07:44:11;;;;;;;30.72;21.23;;;;;;;15.43;96.74;100870.83;1690853;85;21049;-91
2021/09/08 07:46:37;;;;;;;26.30;18.90;;;;;;;15.55;96.39;100869.42;1690730;85;21449;-91
2021/09/08 07:49:03;;;;;;;26.00;20.32;;;;;;;15.63;96.12;100869.13;1690744;85;21014;-91
2021/09/08 07:51:29;;;;;;;27.77;20.90;;;;;;;15.73;96.10;100874.55;1690799;85;21005;-90
2021/09/08 07:53:55;;;;;;;28.30;19.23;;;;;;;15.85;96.15;100872.62;1690836;85;21021;-91
2021/09/08 07:56:21;;;;;;;24.52;18.73;;;;;;;15.95;95.41;100877.02;1690563;85;21081;-90
2021/09/08 07:58:47;;;;;;;24.80;19.12;;;;;;;16.05;95.69;100878.89;1690736;85;21029;-91
2021/09/08 08:01:13;;;;;;;24.95;18.23;;;;;;;16.15;95.71;100875.77;1690831;84;21045;-91
2021/09/08 08:03:39;;;;;;;23.87;16.80;;;;;;;16.25;94.84;100873.98;1690629;85;21060;-90
2021/09/08 08:06:05;;;;;;;25.00;18.05;;;;;;;16.40;94.84;100877.14;1690875;85;21049;-91
2021/09/08 08:08:31;;;;;;;23.87;18.27;;;;;;;16.50;95.06;100879.34;1690673;85;21088;-91
2021/09/08 08:10:57;;;;;;;26.57;17.75;;;;;;;16.61;95.05;100879.70;1690857;84;21061;-91
2021/09/08 08:13:23;;;;;;;28.95;17.55;;;;;;;16.70;94.86;100864.73;1690745;85;21042;-91
2021/09/08 08:15:49;;;;;;;25.25;18.12;;;;;;;16.81;95.05;100872.16;1690984;85;21460;-91
2021/09/08 08:18:15;;;;;;;24.43;17.65;;;;;;;16.94;94.42;100871.86;1690641;85;21009;-91
2021/09/08 08:20:41;;;;;;;23.57;17.85;;;;;;;17.09;94.35;100875.80;1690850;85;21580;-91
2021/09/08 08:23:07;;;;;;;27.90;17.77;;;;;;;17.25;93.67;100870.41;1690596;85;21052;-91
2021/09/08 08:25:33;;;;;;;24.23;17.67;;;;;;;17.38;93.72;100867.45;1690792;85;21523;-91
2021/09/08 08:28:04;;;;;;;21.85;17.07;;;;;;;17.50;93.85;100867.63;1690814;84;21829;-91
2021/09/08 08:30:33;;;;;;;24.02;18.32;;;;;;;17.62;92.91;100868.31;1690844;85;21531;-91
2021/09/08 08:32:59;;;;;;;22.62;16.48;;;;;;;17.77;92.56;100860.25;1690639;85;21053;-91
2021/09/08 08:35:26;;;;;;;22.27;16.80;;;;;;;17.88;92.80;100864.56;1690549;85;21113;-90
2021/09/08 08:37:52;;;;;;;27.58;17.20;;;;;;;17.98;92.90;100860.86;1690760;84;21029;-91
2021/09/08 08:40:20;;;;;;;21.95;16.75;;;;;;;18.12;92.54;100860.87;1690672;85;21520;-91
2021/09/08 08:42:47;;;;;;;23.90;17.40;;;;;;;18.28;92.67;100865.58;1690649;85;21571;-92
2021/09/08 08:45:15;;;;;;;19.95;15.78;;;;;;;18.43;91.31;100855.25;1690556;85;21655;-90
2021/09/08 08:47:41;;;;;;;23.32;16.25;;;;;;;18.56;89.96;100859.75;1690646;84;21014;-91
2021/09/08 08:50:11;;;;;;;22.37;16.80;;;;;;;18.68;90.17;100857.18;1690714;85;21099;-92
2021/09/08 08:52:38;;;;;;;19.90;15.72;;;;;;;18.81;89.75;100857.34;1690524;85;21084;-91
2021/09/08 08:55:05;;;;;;;22.40;15.75;;;;;;;18.89;89.48;100833.37;1690739;84;21587;-91
2021/09/08 08:57:31;;;;;;;29.92;14.83;;;;;;;19.14;89.09;100848.62;1690598;85;21493;-91
2021/09/08 08:59:57;;;;;;;17.02;13.65;;;;;;;19.14;89.09;100848.62;1690735;85;21089;-92
2021/09/08 09:02:29;;;;;;;18.80;14.55;;;;;;;19.27;88.10;100853.58;1690636;85;21061;-92
2021/09/08 09:05:00;;;;;;;15.88;13.68;;;;;;;19.42;87.57;100855.22;1690831;85;21036;-92
2021/09/08 09:07:33;;;;;;;19.20;14.83;;;;;;;19.58;86.82;100855.34;1690533;85;21489;-92
2021/09/08 09:10:12;;;;;;;16.57;13.53;;;;;;;19.66;86.38;100852.73;1690766;85;21009;-91
2021/09/08 09:12:42;;;;;;;16.27;13.32;;;;;;;19.78;87.77;100856.50;1690650;85;21033;-92
2021/09/08 09:15:14;;;;;;;14.90;12.43;;;;;;;19.92;85.98;100858.58;1690787;85;21531;-90
2021/09/08 09:17:41;;;;;;;17.92;12.15;;;;;;;20.06;85.23;100855.80;1690568;85;21006;-91
2021/09/08 09:20:14;;;;;;;21.15;14.80;;;;;;;20.17;85.04;100859.55;1690786;84;21568;-91
2021/09/08 09:22:47;;;;;;;17.70;12.80;;;;;;;20.28;84.91;100859.75;1690525;85;21057;-93
2021/09/08 09:25:23;;;;;;;18.80;13.48;;;;;;;20.39;84.04;100864.30;1690659;85;21037;-89
2021/09/08 09:28:03;;;;;;;14.25;11.93;;;;;;;20.49;83.59;100851.27;1690514;85;21010;-92
2021/09/08 09:30:34;;;;;;;18.67;13.53;;;;;;;20.60;82.24;100852.36;1690662;85;21540;-91
2021/09/08 09:33:01;;;;;;;15.45;11.70;;;;;;;20.71;83.23;100849.86;1690207;85;20990;-92
2021/09/08 09:35:31;;;;;;;21.05;12.58;;;;;;;20.83;82.77;100844.52;1690723;85;21033;-92
2021/09/08 09:38:02;;;;;;;11.48;8.28;;;;;;;20.93;82.21;100842.52;1690707;85;21121;-92
2021/09/08 09:40:32;;;;;;;11.57;8.53;;;;;;;21.07;78.92;100832.45;1690952;85;21069;-92
2021/09/08 09:43:05;;;;;;;9.38;8.45;;;;;;;21.13;77.09;100837.66;1690697;85;21053;-92
2021/09/08 09:45:36;;;;;;;9.18;8.10;;;;;;;21.16;76.56;100829.28;1690184;85;20994;-90
2021/09/08 09:48:03;;;;;;;8.45;6.87;;;;;;;21.26;76.57;100830.45;1690961;85;21090;-92
2021/09/08 09:50:30;;;;;;;10.00;7.62;;;;;;;21.33;76.59;100823.40;1690712;85;21050;-92
2021/09/08 09:52:56;;;;;;;10.78;8.70;;;;;;;21.41;74.69;100824.75;1690901;85;21069;-92
2021/09/08 09:55:25;;;;;;;10.40;8.03;;;;;;;21.52;75.25;100820.39;1690667;85;21025;-92
2021/09/08 09:57:53;;;;;;;10.40;7.75;;;;;;;21.61;76.14;100814.98;1690698;85;21010;-92
2021/09/08 10:00:19;;;;;;;11.38;7.97;;;;;;;21.69;73.87;100815.81;1690483;85;21034;-92
2021/09/08 10:02:47;;;;;;;10.45;8.05;;;;;;;21.77;73.54;100818.45;1690765;85;21492;-90
2021/09/08 10:05:16;;;;;;;13.70;9.08;;;;;;;21.88;72.46;100810.55;1690992;83;21528;-91
2021/09/08 10:07:43;;;;;;;10.75;7.97;;;;;;;21.97;73.00;100804.62;1722786;83;21026;-92
2021/09/08 10:10:27;;;;;;;9.40;8.38;;;;;;;22.06;72.23;100804.94;1731282;82;21508;-92
2021/09/08 10:13:02;;;;;;;8.88;7.87;;;;;;;22.15;72.52;100803.06;1730597;83;21051;-92
2021/09/08 10:15:29;;;;;;;10.53;7.85;;;;;;;22.24;71.69;100800.67;1729015;83;20972;-93
2021/09/08 10:18:06;;;;;;;14.20;9.20;;;;;;;22.35;71.99;100808.36;1726554;81;20989;-93
2021/09/08 10:20:33;;;;;;;9.30;7.97;;;;;;;22.42;71.67;100797.22;1702405;83;21047;-92
2021/09/08 10:23:06;;;;;;;11.18;8.68;;;;;;;22.48;70.11;100794.34;1731232;82;21043;-93
2021/09/08 10:25:33;;;;;;;12.03;8.65;;;;;;;22.53;70.50;100789.24;1729499;83;20963;-93
2021/09/08 10:28:00;;;;;;;12.95;8.88;;;;;;;22.60;70.54;100795.58;1731287;83;21014;-93
2021/09/08 10:30:28;;;;;;;15.50;9.55;;;;;;;22.68;70.35;100790.67;1732166;82;21002;-93
2021/09/08 10:32:54;;;;;;;9.08;7.78;;;;;;;22.71;70.62;100787.62;1705833;82;21077;-93
2021/09/08 10:35:22;;;;;;;9.43;7.37;;;;;;;22.76;69.77;100787.91;1727571;83;21002;-93
2021/09/08 10:37:54;;;;;;;12.63;7.60;;;;;;;22.83;67.74;100786.16;1722477;83;21485;-89
2021/09/08 10:40:23;;;;;;;11.53;8.23;;;;;;;22.92;67.47;100789.64;1711829;83;21087;-93
2021/09/08 10:42:57;;;;;;;10.85;8.33;;;;;;;22.98;67.63;100778.70;1730235;83;20987;-92
2021/09/08 10:45:32;;;;;;;10.40;7.97;;;;;;;23.04;67.53;100776.63;1729881;83;21110;-93
2021/09/08 10:48:00;;;;;;;11.45;7.87;;;;;;;23.11;65.91;100776.23;1730121;83;21018;-93
2021/09/08 10:50:38;;;;;;;9.08;6.75;;;;;;;23.16;66.70;100776.02;1730241;83;21021;-90
2021/09/08 10:53:22;;;;;;;14.25;7.53;;;;;;;23.23;66.38;100769.88;1729963;81;21037;-93
2021/09/08 10:55:52;;;;;;;8.95;7.50;;;;;;;23.29;66.59;100767.80;1725295;82;21494;-91
2021/09/08 10:58:19;;;;;;;8.53;6.95;;;;;;;23.37;65.11;100764.52;1719195;83;21132;-94
2021/09/08 11:00:46;;;;;;;11.78;8.33;;;;;;;23.44;64.99;100763.79;1723080;81;20993;-93
2021/09/08 11:03:21;;;;;;;11.55;8.23;;;;;;;23.48;63.98;100759.19;1690594;85;21029;-93
2021/09/08 11:05:57;;;;;;;10.30;7.62;;;;;;;23.54;64.73;100759.80;1711361;83;21557;-92
2021/09/08 11:08:27;;;;;;;9.25;7.30;;;;;;;23.62;63.50;100752.95;1721124;83;21490;-93
2021/09/08 11:11:20;;;;;;;10.15;7.12;;;;;;;23.69;62.19;100745.50;1719394;83;21038;-93